createdAt,value
2023-01-30T00:01:19.752Z,88.99
2023-01-30T00:03:48.619Z,88.57
2023-01-30T00:06:20.429Z,88.33
2023-01-30T00:08:48.976Z,88.08
2023-01-30T00:11:20.314Z,88.66
2023-01-30T00:13:50.701Z,89.16
2023-01-30T00:16:19.806Z,89.50
2023-01-30T00:18:48.256Z,87.68
2023-01-30T00:21:17.111Z,89.04
2023-01-30T00:23:47.405Z,88.65
2023-01-30T00:26:15.961Z,88.54
2023-01-30T00:28:44.476Z,88.64
2023-01-30T00:31:13.059Z,88.65
2023-01-30T00:33:41.453Z,88.65
2023-01-30T00:36:10.995Z,88.45
2023-01-30T00:38:39.345Z,87.99
2023-01-30T00:41:10.758Z,87.61
2023-01-30T00:43:56.805Z,88.25
2023-01-30T00:46:45.563Z,88.71
2023-01-30T00:49:14.136Z,88.62
2023-01-30T00:51:42.569Z,88.55
2023-01-30T00:54:11.001Z,87.51
2023-01-30T00:56:40.647Z,88.44
2023-01-30T00:59:08.969Z,88.43
2023-01-30T01:01:38.695Z,88.92
2023-01-30T01:04:08.950Z,88.62
2023-01-30T01:06:37.423Z,89.34
2023-01-30T01:09:06.982Z,89.28
2023-01-30T01:11:35.671Z,89.53
2023-01-30T01:14:06.989Z,89.70
2023-01-30T01:16:46.731Z,90.61
2023-01-30T01:19:15.081Z,90.48
2023-01-30T01:21:43.406Z,90.35
2023-01-30T01:24:15.316Z,90.94
2023-01-30T01:26:44.216Z,90.33
2023-01-30T01:29:16.695Z,91.05
2023-01-30T01:31:45.953Z,91.61
2023-01-30T01:34:14.653Z,91.22
2023-01-30T01:36:53.117Z,91.64
2023-01-30T01:39:22.522Z,92.35
2023-01-30T01:41:50.005Z,92.13
2023-01-30T01:44:20.167Z,92.30
2023-01-30T01:46:53.082Z,92.58
2023-01-30T01:49:25.835Z,92.28
2023-01-30T01:52:00.800Z,92.24
2023-01-30T01:54:35.274Z,93.24
2023-01-30T01:57:06.815Z,93.40
2023-01-30T01:59:42.001Z,92.96
2023-01-30T02:02:14.318Z,93.08
2023-01-30T02:05:06.981Z,93.00
2023-01-30T02:07:42.342Z,93.22
2023-01-30T02:10:18.548Z,94.07
2023-01-30T02:12:48.133Z,94.21
2023-01-30T02:15:19.343Z,93.51
2023-01-30T02:17:48.091Z,94.12
2023-01-30T02:20:29.240Z,93.12
2023-01-30T02:24:00.661Z,94.51
2023-01-30T02:26:53.827Z,94.10
2023-01-30T02:30:08.285Z,93.59
2023-01-30T02:32:46.402Z,94.66
2023-01-30T02:35:26.996Z,94.60
2023-01-30T02:38:14.281Z,94.19
2023-01-30T02:40:51.653Z,95.50
2023-01-30T02:43:30.311Z,95.13
2023-01-30T02:46:06.107Z,94.59
2023-01-30T02:48:41.368Z,95.05
2023-01-30T02:51:15.490Z,94.77
2023-01-30T02:53:43.997Z,94.89
2023-01-30T02:56:12.481Z,95.54
2023-01-30T02:58:46.665Z,95.33
2023-01-30T03:01:41.749Z,94.94
2023-01-30T03:04:38.003Z,95.01
2023-01-30T03:07:29.122Z,95.22
2023-01-30T03:10:05.683Z,95.63
2023-01-30T03:12:45.201Z,95.98
2023-01-30T03:15:20.271Z,95.30
2023-01-30T03:17:49.886Z,95.57
2023-01-30T03:20:22.181Z,95.25
2023-01-30T03:22:50.668Z,95.25
2023-01-30T03:25:23.526Z,95.13
2023-01-30T03:27:54.274Z,95.59
2023-01-30T03:30:23.272Z,95.52
2023-01-30T03:32:51.860Z,95.44
2023-01-30T03:35:21.567Z,95.00
2023-01-30T03:37:50.109Z,95.67
2023-01-30T03:40:19.561Z,95.57
2023-01-30T03:42:47.932Z,96.03
2023-01-30T03:45:16.789Z,96.17
2023-01-30T03:47:45.228Z,96.07
2023-01-30T03:50:13.697Z,96.21
2023-01-30T03:52:43.509Z,95.74
2023-01-30T03:55:12.136Z,95.83
2023-01-30T03:57:40.563Z,95.61
2023-01-30T04:00:10.836Z,96.12
2023-01-30T04:02:39.727Z,95.53
2023-01-30T04:05:08.922Z,95.54
2023-01-30T04:07:37.406Z,95.40
2023-01-30T04:10:08.566Z,95.14
2023-01-30T04:12:36.927Z,95.24
2023-01-30T04:15:06.286Z,95.61
2023-01-30T04:17:34.743Z,95.54
2023-01-30T04:20:03.614Z,95.71
2023-01-30T04:22:32.046Z,95.63
2023-01-30T04:25:00.624Z,95.45
2023-01-30T04:27:30.441Z,95.50
2023-01-30T04:29:58.829Z,95.61
2023-01-30T04:32:27.882Z,95.51
2023-01-30T04:34:56.175Z,95.45
2023-01-30T04:37:24.579Z,95.27
2023-01-30T04:39:53.104Z,95.86
2023-01-30T04:42:21.434Z,95.48
2023-01-30T04:44:51.751Z,95.52
2023-01-30T04:47:20.194Z,95.72
2023-01-30T04:49:48.562Z,95.40
2023-01-30T04:52:17.164Z,95.58
2023-01-30T04:54:45.467Z,95.69
2023-01-30T04:57:13.853Z,95.41
2023-01-30T04:59:42.392Z,94.72
2023-01-30T05:02:12.295Z,94.94
2023-01-30T05:04:41.942Z,95.12
2023-01-30T05:07:11.927Z,94.53
2023-01-30T05:09:40.259Z,94.37
2023-01-30T05:12:09.014Z,93.94
2023-01-30T05:14:41.328Z,94.39
2023-01-30T05:17:11.168Z,94.01
2023-01-30T05:19:39.560Z,93.71
2023-01-30T05:22:08.459Z,93.48
2023-01-30T05:24:37.155Z,93.57
2023-01-30T05:27:06.057Z,93.59
2023-01-30T05:29:34.506Z,92.90
2023-01-30T05:32:02.890Z,92.50
2023-01-30T05:34:32.760Z,92.83
2023-01-30T05:37:01.097Z,92.79
2023-01-30T05:39:29.389Z,92.54
2023-01-30T05:41:57.856Z,92.85
2023-01-30T05:44:26.665Z,93.00
2023-01-30T05:46:55.098Z,92.25
2023-01-30T05:49:23.647Z,92.03
2023-01-30T05:51:53.552Z,92.23
2023-01-30T05:54:22.123Z,91.84
2023-01-30T05:56:51.332Z,92.02
2023-01-30T05:59:21.324Z,91.81
2023-01-30T06:01:49.708Z,91.68
2023-01-30T06:04:18.065Z,91.42
2023-01-30T06:06:46.490Z,91.02
2023-01-30T06:09:16.398Z,90.25
2023-01-30T06:11:44.759Z,90.31
2023-01-30T06:14:13.218Z,90.41
2023-01-30T06:16:41.552Z,90.21
2023-01-30T06:19:10.171Z,90.28
2023-01-30T06:21:38.487Z,89.77
2023-01-30T06:24:07.637Z,90.11
2023-01-30T06:26:37.366Z,89.90
2023-01-30T06:29:05.695Z,89.83
2023-01-30T06:31:34.155Z,88.80
2023-01-30T06:34:02.526Z,88.99
2023-01-30T06:36:31.135Z,88.63
2023-01-30T06:38:59.460Z,88.72
2023-01-30T06:41:27.769Z,88.36
2023-01-30T06:43:57.558Z,88.05
2023-01-30T06:46:26.081Z,88.36
2023-01-30T06:48:54.448Z,87.60
2023-01-30T06:51:22.796Z,87.33
2023-01-30T06:53:53.260Z,87.75
2023-01-30T06:56:21.735Z,87.83
2023-01-30T06:58:50.107Z,87.76
2023-01-30T07:01:21.328Z,87.44
2023-01-30T07:03:49.745Z,86.89
2023-01-30T07:06:18.296Z,87.50
2023-01-30T07:08:46.775Z,86.55
2023-01-30T07:11:15.532Z,86.64
2023-01-30T07:13:44.038Z,86.29
2023-01-30T07:16:12.634Z,86.71
2023-01-30T07:18:42.482Z,85.98
2023-01-30T07:21:10.866Z,86.30
2023-01-30T07:23:39.320Z,86.48
2023-01-30T07:26:08.252Z,86.71
2023-01-30T07:28:36.672Z,86.53
2023-01-30T07:31:05.209Z,85.71
2023-01-30T07:33:33.492Z,86.01
2023-01-30T07:36:03.219Z,84.99
2023-01-30T07:38:31.615Z,85.61
2023-01-30T07:41:00.146Z,85.34
2023-01-30T07:43:28.591Z,84.53
2023-01-30T07:45:56.879Z,84.76
2023-01-30T07:48:25.274Z,84.54
2023-01-30T07:50:57.831Z,84.97
2023-01-30T07:53:27.656Z,84.50
2023-01-30T07:55:56.078Z,84.12
2023-01-30T07:58:24.505Z,84.49
2023-01-30T08:00:57.060Z,84.29
2023-01-30T08:03:25.573Z,84.51
2023-01-30T08:05:54.117Z,84.30
2023-01-30T08:08:22.764Z,84.02
2023-01-30T08:10:53.001Z,84.40
2023-01-30T08:13:21.247Z,83.66
2023-01-30T08:15:50.020Z,83.15
2023-01-30T08:18:18.332Z,83.43
2023-01-30T08:20:46.974Z,82.66
2023-01-30T08:23:15.371Z,82.46
2023-01-30T08:25:43.745Z,82.33
2023-01-30T08:28:13.657Z,82.53
2023-01-30T08:30:42.781Z,82.20
2023-01-30T08:33:11.358Z,82.07
2023-01-30T08:35:41.304Z,81.05
2023-01-30T08:38:10.050Z,81.96
2023-01-30T08:40:38.987Z,81.40
2023-01-30T08:43:07.744Z,81.62
2023-01-30T08:45:37.564Z,81.64
2023-01-30T08:48:07.923Z,81.54
2023-01-30T08:50:37.156Z,81.37
2023-01-30T08:53:07.792Z,81.64
2023-01-30T08:55:37.003Z,81.96
2023-01-30T08:58:05.434Z,81.29
2023-01-30T09:00:33.912Z,81.21
2023-01-30T09:03:03.775Z,81.46
2023-01-30T09:05:32.163Z,81.03
2023-01-30T09:08:00.969Z,80.80
2023-01-30T09:10:29.620Z,81.34
2023-01-30T09:12:58.155Z,80.59
2023-01-30T09:15:26.627Z,80.91
2023-01-30T09:17:55.015Z,80.60
2023-01-30T09:20:25.736Z,80.07
2023-01-30T09:22:54.103Z,80.37
2023-01-30T09:25:22.376Z,80.52
2023-01-30T09:27:51.868Z,80.67
2023-01-30T09:30:21.523Z,79.77
2023-01-30T09:32:50.174Z,80.45
2023-01-30T09:35:18.820Z,79.89
2023-01-30T09:37:53.306Z,81.28
2023-01-30T09:40:28.970Z,80.57
2023-01-30T09:43:23.761Z,80.50
2023-01-30T09:46:20.097Z,80.76
2023-01-30T09:48:59.385Z,81.53
2023-01-30T09:51:44.902Z,81.58
2023-01-30T09:54:24.336Z,83.16
2023-01-30T09:57:21.641Z,83.94
2023-01-30T10:00:06.081Z,83.69
2023-01-30T10:02:47.747Z,84.70
2023-01-30T10:05:16.138Z,84.46
2023-01-30T10:08:05.104Z,84.11
2023-01-30T10:10:55.052Z,84.34
2023-01-30T10:13:55.999Z,85.44
2023-01-30T10:16:31.674Z,85.21
2023-01-30T10:19:41.856Z,85.29
2023-01-30T10:22:26.358Z,85.21
2023-01-30T10:25:09.336Z,85.00
2023-01-30T10:27:49.019Z,84.82
2023-01-30T10:30:18.857Z,85.65
2023-01-30T10:32:52.225Z,84.95
2023-01-30T10:35:27.154Z,84.51
2023-01-30T10:38:06.233Z,84.25
2023-01-30T10:40:42.454Z,84.78
2023-01-30T10:43:20.247Z,84.97
2023-01-30T10:45:59.814Z,84.97
2023-01-30T10:48:54.039Z,85.62
2023-01-30T10:51:38.500Z,85.84
2023-01-30T10:54:14.913Z,85.80
2023-01-30T10:56:52.328Z,85.72
2023-01-30T10:59:31.006Z,86.29
2023-01-30T11:02:05.810Z,85.72
2023-01-30T11:04:40.622Z,86.14
2023-01-30T11:07:09.739Z,86.30
2023-01-30T11:09:44.368Z,86.27
2023-01-30T11:12:13.864Z,87.03
2023-01-30T11:14:59.145Z,86.74
2023-01-30T11:17:35.539Z,86.54
2023-01-30T11:20:13.775Z,86.94
2023-01-30T11:22:49.484Z,86.59
2023-01-30T11:25:21.796Z,87.03
2023-01-30T11:27:57.035Z,86.95
2023-01-30T11:30:30.697Z,86.85
2023-01-30T11:33:13.368Z,86.71
2023-01-30T11:35:54.937Z,87.35
2023-01-30T11:38:27.085Z,86.74
2023-01-30T11:41:07.329Z,86.05
2023-01-30T11:43:39.596Z,85.57
2023-01-30T11:46:13.359Z,83.87
2023-01-30T11:49:29.128Z,82.77
2023-01-30T11:51:39.899Z,82.54
2023-01-30T11:54:14.096Z,82.16
2023-01-30T11:56:48.541Z,80.97
2023-01-30T11:59:28.990Z,80.97
2023-01-30T12:02:12.203Z,80.65
2023-01-30T12:04:44.597Z,80.45
2023-01-30T12:07:22.376Z,79.67
2023-01-30T12:09:51.803Z,79.58
2023-01-30T12:12:35.081Z,80.21
2023-01-30T12:15:16.288Z,79.92
2023-01-30T12:17:52.112Z,79.42
2023-01-30T12:20:30.027Z,79.62
2023-01-30T12:23:11.997Z,79.76
2023-01-30T12:25:46.241Z,79.12
2023-01-30T12:28:23.782Z,79.74
2023-01-30T12:30:57.463Z,78.81
2023-01-30T12:33:32.272Z,79.36
2023-01-30T12:36:13.376Z,78.21
2023-01-30T12:38:58.212Z,78.41
2023-01-30T12:41:43.535Z,78.60
2023-01-30T12:44:55.498Z,77.57
2023-01-30T12:48:02.149Z,77.47
2023-01-30T12:50:47.379Z,78.50
2023-01-30T12:53:30.466Z,78.18
2023-01-30T12:56:30.011Z,77.67
2023-01-30T12:59:06.030Z,77.18
2023-01-30T13:01:46.396Z,77.22
2023-01-30T13:04:29.320Z,77.87
2023-01-30T13:07:12.890Z,77.34
2023-01-30T13:09:59.810Z,77.21
2023-01-30T13:12:38.706Z,77.89
2023-01-30T13:15:21.531Z,77.02
2023-01-30T13:18:08.657Z,77.70
2023-01-30T13:20:58.114Z,77.21
2023-01-30T13:23:42.206Z,76.56
2023-01-30T13:26:13.708Z,76.81
2023-01-30T13:28:47.067Z,76.45
2023-01-30T13:31:19.340Z,77.29
2023-01-30T13:33:50.932Z,77.23
2023-01-30T13:36:24.617Z,77.15
2023-01-30T13:39:02.521Z,77.24
2023-01-30T13:41:37.637Z,76.85
2023-01-30T13:44:18.466Z,77.52
2023-01-30T13:46:48.765Z,77.95
2023-01-30T13:49:27.159Z,77.95
2023-01-30T13:52:01.101Z,78.05
2023-01-30T13:54:48.034Z,77.22
2023-01-30T13:57:32.314Z,77.28
2023-01-30T14:00:27.156Z,77.17
2023-01-30T14:03:25.271Z,77.53
2023-01-30T14:06:29.909Z,77.16
2023-01-30T14:09:00.310Z,78.31
2023-01-30T14:11:38.522Z,77.96
2023-01-30T14:14:25.898Z,77.87
2023-01-30T14:16:56.960Z,78.24
2023-01-30T14:19:40.316Z,77.97
2023-01-30T14:22:36.423Z,77.66
2023-01-30T14:25:45.703Z,78.18
2023-01-30T14:28:47.377Z,77.76
2023-01-30T14:31:55.026Z,78.46
2023-01-30T14:34:49.172Z,77.81
2023-01-30T14:37:47.708Z,78.00
2023-01-30T14:40:48.008Z,77.51
2023-01-30T14:43:48.505Z,77.67
2023-01-30T14:46:56.299Z,77.99
2023-01-30T14:49:34.162Z,77.44
2023-01-30T14:52:04.110Z,77.25
2023-01-30T14:54:42.731Z,78.05
2023-01-30T14:57:32.715Z,77.98
2023-01-30T15:00:18.826Z,78.33
2023-01-30T15:02:53.858Z,77.89
2023-01-30T15:05:32.186Z,78.27
2023-01-30T15:08:08.162Z,78.39
2023-01-30T15:11:06.632Z,77.83
2023-01-30T15:13:59.826Z,78.39
2023-01-30T15:17:02.102Z,77.26
2023-01-30T15:20:15.039Z,79.67
2023-01-30T15:23:29.682Z,80.71
2023-01-30T15:26:24.924Z,80.76
2023-01-30T15:29:10.145Z,81.33
2023-01-30T15:31:38.730Z,81.27
2023-01-30T15:34:21.928Z,82.32
2023-01-30T15:36:50.431Z,82.27
2023-01-30T15:39:23.681Z,82.50
2023-01-30T15:41:53.724Z,82.89
2023-01-30T15:44:53.602Z,83.09
2023-01-30T15:47:53.471Z,83.35
2023-01-30T15:50:23.512Z,83.67
2023-01-30T15:52:54.112Z,83.56
2023-01-30T15:55:30.357Z,83.39
2023-01-30T15:58:04.302Z,83.29
2023-01-30T16:00:37.368Z,84.01
2023-01-30T16:03:12.587Z,84.01
2023-01-30T16:05:49.269Z,83.98
2023-01-30T16:08:24.446Z,84.05
2023-01-30T16:10:53.446Z,84.46
2023-01-30T16:13:24.016Z,84.41
2023-01-30T16:15:56.994Z,84.35
2023-01-30T16:18:34.969Z,84.56
2023-01-30T16:21:07.305Z,84.50
2023-01-30T16:23:39.034Z,85.02
2023-01-30T16:26:11.120Z,84.87
2023-01-30T16:28:39.791Z,85.13
2023-01-30T16:31:11.106Z,85.11
2023-01-30T16:33:40.196Z,85.13
2023-01-30T16:36:34.943Z,84.83
2023-01-30T16:39:14.901Z,84.69
2023-01-30T16:41:44.797Z,84.42
2023-01-30T16:44:20.083Z,83.91
2023-01-30T16:46:53.589Z,83.74
2023-01-30T16:49:25.957Z,84.30
2023-01-30T16:52:06.157Z,84.23
2023-01-30T16:54:36.400Z,84.34
2023-01-30T16:57:05.415Z,83.62
2023-01-30T16:59:37.730Z,84.22
2023-01-30T17:02:08.173Z,84.58
2023-01-30T17:04:41.334Z,84.51
2023-01-30T17:07:35.116Z,84.48
2023-01-30T17:10:03.694Z,84.84
2023-01-30T17:12:50.777Z,84.92
2023-01-30T17:15:36.775Z,84.88
2023-01-30T17:18:05.850Z,84.72
2023-01-30T17:20:41.175Z,84.72
2023-01-30T17:23:16.577Z,85.07
2023-01-30T17:25:47.209Z,84.78
2023-01-30T17:28:21.560Z,85.36
2023-01-30T17:30:50.973Z,85.44
2023-01-30T17:33:20.176Z,85.49
2023-01-30T17:35:48.464Z,85.27
2023-01-30T17:38:18.114Z,84.86
2023-01-30T17:40:46.678Z,84.79
2023-01-30T17:43:15.797Z,85.12
2023-01-30T17:45:44.239Z,84.88
2023-01-30T17:48:14.282Z,84.84
2023-01-30T17:50:42.827Z,85.31
2023-01-30T17:53:11.330Z,84.41
2023-01-30T17:55:41.259Z,84.99
2023-01-30T17:58:17.378Z,84.96
2023-01-30T18:00:45.834Z,85.07
2023-01-30T18:03:14.711Z,85.10
2023-01-30T18:05:43.424Z,85.12
2023-01-30T18:08:12.734Z,85.04
2023-01-30T18:10:42.483Z,85.12
2023-01-30T18:13:11.155Z,85.31
2023-01-30T18:15:39.530Z,85.71
2023-01-30T18:18:13.179Z,85.55
2023-01-30T18:20:41.502Z,85.16
2023-01-30T18:23:09.846Z,85.12
2023-01-30T18:25:38.336Z,85.33
2023-01-30T18:28:12.402Z,85.27
2023-01-30T18:30:41.247Z,85.45
2023-01-30T18:33:09.547Z,85.72
2023-01-30T18:35:39.558Z,85.80
2023-01-30T18:38:08.016Z,85.28
2023-01-30T18:40:38.955Z,85.49
2023-01-30T18:43:08.908Z,85.83
2023-01-30T18:45:37.150Z,86.42
2023-01-30T18:48:05.965Z,85.72
2023-01-30T18:50:34.332Z,85.95
2023-01-30T18:53:02.663Z,86.69
2023-01-30T18:55:31.053Z,86.10
2023-01-30T18:58:00.359Z,86.31
2023-01-30T19:00:30.159Z,85.84
2023-01-30T19:02:58.589Z,86.11
2023-01-30T19:05:27.052Z,85.73
2023-01-30T19:07:55.645Z,86.20
2023-01-30T19:10:24.747Z,86.53
2023-01-30T19:13:11.013Z,85.75
2023-01-30T19:15:40.774Z,86.26
2023-01-30T19:18:09.400Z,85.99
2023-01-30T19:20:38.011Z,86.55
2023-01-30T19:23:06.474Z,85.96
2023-01-30T19:25:34.801Z,86.10
2023-01-30T19:28:03.230Z,86.50
2023-01-30T19:30:31.773Z,86.05
2023-01-30T19:33:01.581Z,86.30
2023-01-30T19:35:30.041Z,85.86
2023-01-30T19:38:00.285Z,85.67
2023-01-30T19:40:28.909Z,86.09
2023-01-30T19:43:05.751Z,85.66
2023-01-30T19:45:39.723Z,85.95
2023-01-30T19:48:13.266Z,85.92
2023-01-30T19:50:41.801Z,85.75
2023-01-30T19:53:10.169Z,86.08
2023-01-30T19:55:38.697Z,86.00
2023-01-30T19:58:07.259Z,86.05
2023-01-30T20:00:36.152Z,85.95
2023-01-30T20:03:04.644Z,85.56
2023-01-30T20:05:34.673Z,85.50
2023-01-30T20:08:03.561Z,85.55
2023-01-30T20:10:32.217Z,85.63
2023-01-30T20:13:00.797Z,85.79
2023-01-30T20:15:29.277Z,85.55
2023-01-30T20:17:58.137Z,85.83
2023-01-30T20:20:26.415Z,86.04
2023-01-30T20:22:56.153Z,85.93
2023-01-30T20:25:24.637Z,86.17
2023-01-30T20:27:53.105Z,86.48
2023-01-30T20:30:22.002Z,86.49
2023-01-30T20:32:50.661Z,86.79
2023-01-30T20:35:19.060Z,86.77
2023-01-30T20:37:47.530Z,87.14
2023-01-30T20:40:19.006Z,87.30
2023-01-30T20:42:48.814Z,87.35
2023-01-30T20:45:17.391Z,87.78
2023-01-30T20:47:46.785Z,87.78
2023-01-30T20:50:15.315Z,87.94
2023-01-30T20:52:43.856Z,87.87
2023-01-30T20:55:12.243Z,88.31
2023-01-30T20:57:43.825Z,88.17
2023-01-30T21:00:13.708Z,88.13
2023-01-30T21:02:45.590Z,88.40
2023-01-30T21:05:13.966Z,87.92
2023-01-30T21:07:42.441Z,88.63
2023-01-30T21:10:12.339Z,88.71
2023-01-30T21:12:42.290Z,88.68
2023-01-30T21:15:11.244Z,88.97
2023-01-30T21:17:39.888Z,88.94
2023-01-30T21:20:09.803Z,89.34
2023-01-30T21:22:38.218Z,89.15
2023-01-30T21:25:07.024Z,89.11
2023-01-30T21:27:35.559Z,89.45
2023-01-30T21:30:06.578Z,89.16
2023-01-30T21:32:34.858Z,89.12
2023-01-30T21:35:03.203Z,89.23
2023-01-30T21:37:49.145Z,89.43
2023-01-30T21:40:35.290Z,89.02
2023-01-30T21:43:15.618Z,89.10
2023-01-30T21:45:45.559Z,89.87
2023-01-30T21:48:13.833Z,89.39
2023-01-30T21:50:42.263Z,89.95
2023-01-30T21:53:10.658Z,89.52
2023-01-30T21:55:38.952Z,90.00
2023-01-30T21:58:07.243Z,90.18
2023-01-30T22:00:36.621Z,89.47
2023-01-30T22:03:06.574Z,89.87
2023-01-30T22:05:36.726Z,89.48
2023-01-30T22:08:06.298Z,89.96
2023-01-30T22:10:35.420Z,89.61
2023-01-30T22:13:03.826Z,89.64
2023-01-30T22:15:34.476Z,90.04
2023-01-30T22:18:03.957Z,90.17
2023-01-30T22:20:34.035Z,90.11
2023-01-30T22:23:02.370Z,90.37
2023-01-30T22:25:30.699Z,89.79
2023-01-30T22:27:59.010Z,90.25
2023-01-30T22:30:27.573Z,90.44
2023-01-30T22:32:56.339Z,90.35
2023-01-30T22:35:24.716Z,90.59
2023-01-30T22:37:54.485Z,90.75
2023-01-30T22:40:23.017Z,90.71
2023-01-30T22:42:51.386Z,90.69
2023-01-30T22:45:20.076Z,90.45
2023-01-30T22:47:48.654Z,90.55
2023-01-30T22:50:17.779Z,90.78
2023-01-30T22:52:46.136Z,90.78
2023-01-30T22:55:16.061Z,90.51
2023-01-30T22:57:44.364Z,90.91
2023-01-30T23:00:13.667Z,90.61
2023-01-30T23:02:42.013Z,90.70
2023-01-30T23:05:11.173Z,90.25
2023-01-30T23:07:39.427Z,90.71
2023-01-30T23:10:09.127Z,90.37
2023-01-30T23:12:56.344Z,91.00
2023-01-30T23:15:24.697Z,90.56
2023-01-30T23:18:16.060Z,90.57
2023-01-30T23:20:44.382Z,90.24
2023-01-30T23:23:12.815Z,90.85
2023-01-30T23:25:42.833Z,90.81
2023-01-30T23:28:12.622Z,90.83
2023-01-30T23:30:41.089Z,90.45
2023-01-30T23:33:09.505Z,90.37
2023-01-30T23:35:37.891Z,91.06
2023-01-30T23:38:19.237Z,90.42
2023-01-30T23:40:49.779Z,90.29
2023-01-30T23:43:20.374Z,90.80
2023-01-30T23:45:48.708Z,90.72
2023-01-30T23:48:17.081Z,90.39
2023-01-30T23:50:45.523Z,90.10
2023-01-30T23:53:13.867Z,90.32
2023-01-30T23:55:51.551Z,90.76
2023-01-30T23:58:21.425Z,90.33
